sensor_id;sensor_type;location;lat;lon;timestamp;P1;durP1;ratioP1;P2;durP2;ratioP2
20203;SDS011;10261;49.010;12.034;2022-08-21T00:00:16;8.32;;;7.28;;
20203;SDS011;10261;49.010;12.034;2022-08-21T00:01:21;8.02;;;7.22;;
20203;SDS011;10261;49.010;12.034;2022-08-21T00:02:27;8.00;;;7.13;;
20203;SDS011;10261;49.010;12.034;2022-08-21T00:03:30;8.98;;;6.75;;
20203;SDS011;10261;49.010;12.034;2022-08-21T00:04:33;8.73;;;6.15;;
20203;SDS011;10261;49.010;12.034;2022-08-21T00:05:37;7.00;;;6.40;;
20203;SDS011;10261;49.010;12.034;2022-08-21T00:06:41;7.50;;;6.80;;
20203;SDS011;10261;49.010;12.034;2022-08-21T00:07:44;7.53;;;6.35;;
20203;SDS011;10261;49.010;12.034;2022-08-21T00:08:46;6.35;;;5.68;;
20203;SDS011;10261;49.010;12.034;2022-08-21T00:09:49;7.30;;;6.60;;
20203;SDS011;10261;49.010;12.034;2022-08-21T00:10:51;6.10;;;5.60;;
20203;SDS011;10261;49.010;12.034;2022-08-21T00:11:55;8.05;;;7.25;;
20203;SDS011;10261;49.010;12.034;2022-08-21T00:12:57;9.30;;;6.60;;
20203;SDS011;10261;49.010;12.034;2022-08-21T00:14:02;7.93;;;5.60;;
20203;SDS011;10261;49.010;12.034;2022-08-21T00:15:06;9.48;;;6.35;;
20203;SDS011;10261;49.010;12.034;2022-08-21T00:16:12;7.00;;;6.38;;
20203;SDS011;10261;49.010;12.034;2022-08-21T00:17:14;7.53;;;6.10;;
20203;SDS011;10261;49.010;12.034;2022-08-21T00:18:18;10.20;;;6.32;;
20203;SDS011;10261;49.010;12.034;2022-08-21T00:19:20;8.85;;;5.93;;
20203;SDS011;10261;49.010;12.034;2022-08-21T00:20:26;12.20;;;6.18;;
20203;SDS011;10261;49.010;12.034;2022-08-21T00:21:28;10.52;;;7.68;;
20203;SDS011;10261;49.010;12.034;2022-08-21T00:22:31;5.82;;;5.32;;
20203;SDS011;10261;49.010;12.034;2022-08-21T00:23:34;6.82;;;5.95;;
20203;SDS011;10261;49.010;12.034;2022-08-21T00:24:37;9.10;;;6.95;;
20203;SDS011;10261;49.010;12.034;2022-08-21T00:25:41;6.45;;;5.65;;
20203;SDS011;10261;49.010;12.034;2022-08-21T00:26:45;9.43;;;6.88;;
20203;SDS011;10261;49.010;12.034;2022-08-21T00:27:48;7.07;;;6.32;;
20203;SDS011;10261;49.010;12.034;2022-08-21T00:28:50;7.07;;;5.63;;
20203;SDS011;10261;49.010;12.034;2022-08-21T00:29:55;7.10;;;6.43;;
20203;SDS011;10261;49.010;12.034;2022-08-21T00:30:57;6.65;;;6.03;;
20203;SDS011;10261;49.010;12.034;2022-08-21T00:32:01;7.10;;;6.40;;
20203;SDS011;10261;49.010;12.034;2022-08-21T00:33:03;6.40;;;5.80;;
20203;SDS011;10261;49.010;12.034;2022-08-21T00:34:09;7.55;;;6.82;;
20203;SDS011;10261;49.010;12.034;2022-08-21T00:35:12;7.30;;;5.97;;
20203;SDS011;10261;49.010;12.034;2022-08-21T00:36:17;6.80;;;6.20;;
20203;SDS011;10261;49.010;12.034;2022-08-21T00:37:19;6.85;;;6.20;;
20203;SDS011;10261;49.010;12.034;2022-08-21T00:38:23;6.78;;;5.50;;
20203;SDS011;10261;49.010;12.034;2022-08-21T00:39:25;8.45;;;6.32;;
20203;SDS011;10261;49.010;12.034;2022-08-21T00:40:29;6.63;;;5.70;;
20203;SDS011;10261;49.010;12.034;2022-08-21T00:41:35;6.65;;;5.88;;
20203;SDS011;10261;49.010;12.034;2022-08-21T00:42:39;8.85;;;5.40;;
20203;SDS011;10261;49.010;12.034;2022-08-21T00:43:41;6.18;;;5.57;;
20203;SDS011;10261;49.010;12.034;2022-08-21T00:44:45;6.75;;;5.90;;
20203;SDS011;10261;49.010;12.034;2022-08-21T00:45:48;6.22;;;5.63;;
20203;SDS011;10261;49.010;12.034;2022-08-21T00:46:51;6.10;;;5.43;;
20203;SDS011;10261;49.010;12.034;2022-08-21T00:47:54;10.15;;;5.60;;
20203;SDS011;10261;49.010;12.034;2022-08-21T00:48:58;7.35;;;6.20;;
20203;SDS011;10261;49.010;12.034;2022-08-21T00:50:02;6.50;;;5.90;;
20203;SDS011;10261;49.010;12.034;2022-08-21T00:51:07;7.53;;;6.78;;
20203;SDS011;10261;49.010;12.034;2022-08-21T00:52:15;7.50;;;6.78;;
20203;SDS011;10261;49.010;12.034;2022-08-21T00:53:21;7.47;;;6.78;;
20203;SDS011;10261;49.010;12.034;2022-08-21T00:54:25;7.43;;;6.57;;
20203;SDS011;10261;49.010;12.034;2022-08-21T00:55:31;7.25;;;6.55;;
20203;SDS011;10261;49.010;12.034;2022-08-21T00:56:35;7.60;;;6.22;;
20203;SDS011;10261;49.010;12.034;2022-08-21T00:57:42;6.88;;;6.28;;
20203;SDS011;10261;49.010;12.034;2022-08-21T00:58:50;7.03;;;6.32;;
20203;SDS011;10261;49.010;12.034;2022-08-21T00:59:56;6.78;;;6.10;;
20203;SDS011;10261;49.010;12.034;2022-08-21T01:01:01;7.55;;;6.75;;
20203;SDS011;10261;49.010;12.034;2022-08-21T01:02:09;8.32;;;6.93;;
20203;SDS011;10261;49.010;12.034;2022-08-21T01:03:13;9.85;;;7.03;;
20203;SDS011;10261;49.010;12.034;2022-08-21T01:04:19;7.95;;;7.05;;
20203;SDS011;10261;49.010;12.034;2022-08-21T01:05:23;8.70;;;7.25;;
20203;SDS011;10261;49.010;12.034;2022-08-21T01:06:26;9.15;;;7.10;;
20203;SDS011;10261;49.010;12.034;2022-08-21T01:07:28;10.10;;;6.53;;
20203;SDS011;10261;49.010;12.034;2022-08-21T01:08:32;9.70;;;6.72;;
20203;SDS011;10261;49.010;12.034;2022-08-21T01:09:35;10.48;;;7.25;;
20203;SDS011;10261;49.010;12.034;2022-08-21T01:10:39;7.60;;;6.90;;
20203;SDS011;10261;49.010;12.034;2022-08-21T01:11:41;10.85;;;7.38;;
20203;SDS011;10261;49.010;12.034;2022-08-21T01:12:45;9.82;;;8.55;;
20203;SDS011;10261;49.010;12.034;2022-08-21T01:13:47;9.73;;;8.30;;
20203;SDS011;10261;49.010;12.034;2022-08-21T01:14:50;12.95;;;8.35;;
20203;SDS011;10261;49.010;12.034;2022-08-21T01:15:54;9.50;;;8.05;;
20203;SDS011;10261;49.010;12.034;2022-08-21T01:16:58;12.13;;;8.77;;
20203;SDS011;10261;49.010;12.034;2022-08-21T01:18:02;10.13;;;7.90;;
20203;SDS011;10261;49.010;12.034;2022-08-21T01:19:05;11.82;;;8.20;;
20203;SDS011;10261;49.010;12.034;2022-08-21T01:20:10;10.35;;;8.43;;
20203;SDS011;10261;49.010;12.034;2022-08-21T01:21:16;9.15;;;8.18;;
20203;SDS011;10261;49.010;12.034;2022-08-21T01:22:19;10.07;;;8.25;;
20203;SDS011;10261;49.010;12.034;2022-08-21T01:23:23;9.15;;;8.20;;
20203;SDS011;10261;49.010;12.034;2022-08-21T01:24:25;9.00;;;6.75;;
20203;SDS011;10261;49.010;12.034;2022-08-21T01:25:28;9.07;;;8.18;;
20203;SDS011;10261;49.010;12.034;2022-08-21T01:26:32;7.88;;;7.13;;
20203;SDS011;10261;49.010;12.034;2022-08-21T01:27:36;10.13;;;8.32;;
20203;SDS011;10261;49.010;12.034;2022-08-21T01:28:40;9.15;;;7.38;;
20203;SDS011;10261;49.010;12.034;2022-08-21T01:29:47;10.43;;;7.95;;
20203;SDS011;10261;49.010;12.034;2022-08-21T01:30:54;8.10;;;7.30;;
20203;SDS011;10261;49.010;12.034;2022-08-21T01:31:58;11.10;;;7.60;;
20203;SDS011;10261;49.010;12.034;2022-08-21T01:33:00;10.60;;;7.60;;
20203;SDS011;10261;49.010;12.034;2022-08-21T01:34:04;14.23;;;8.07;;
20203;SDS011;10261;49.010;12.034;2022-08-21T01:35:06;10.15;;;8.52;;
20203;SDS011;10261;49.010;12.034;2022-08-21T01:36:10;11.05;;;7.45;;
20203;SDS011;10261;49.010;12.034;2022-08-21T01:37:14;8.40;;;7.60;;
20203;SDS011;10261;49.010;12.034;2022-08-21T01:38:18;13.80;;;8.70;;
20203;SDS011;10261;49.010;12.034;2022-08-21T01:39:20;8.65;;;7.45;;
20203;SDS011;10261;49.010;12.034;2022-08-21T01:40:23;9.43;;;8.48;;
20203;SDS011;10261;49.010;12.034;2022-08-21T01:41:26;7.90;;;7.10;;
20203;SDS011;10261;49.010;12.034;2022-08-21T01:42:29;10.48;;;7.30;;
20203;SDS011;10261;49.010;12.034;2022-08-21T01:43:31;11.43;;;8.20;;
20203;SDS011;10261;49.010;12.034;2022-08-21T01:44:40;10.43;;;7.95;;
20203;SDS011;10261;49.010;12.034;2022-08-21T01:45:42;10.02;;;8.60;;
20203;SDS011;10261;49.010;12.034;2022-08-21T01:46:45;9.60;;;8.43;;
20203;SDS011;10261;49.010;12.034;2022-08-21T01:47:47;13.27;;;8.52;;
20203;SDS011;10261;49.010;12.034;2022-08-21T01:48:50;10.40;;;8.25;;
20203;SDS011;10261;49.010;12.034;2022-08-21T01:49:52;10.27;;;8.07;;
20203;SDS011;10261;49.010;12.034;2022-08-21T01:50:56;7.85;;;7.05;;
20203;SDS011;10261;49.010;12.034;2022-08-21T01:51:59;8.60;;;7.70;;
20203;SDS011;10261;49.010;12.034;2022-08-21T01:53:04;9.70;;;8.35;;
20203;SDS011;10261;49.010;12.034;2022-08-21T01:54:06;11.95;;;8.75;;
20203;SDS011;10261;49.010;12.034;2022-08-21T01:55:09;8.50;;;7.50;;
20203;SDS011;10261;49.010;12.034;2022-08-21T01:56:13;10.35;;;7.90;;
20203;SDS011;10261;49.010;12.034;2022-08-21T01:57:18;9.27;;;8.25;;
20203;SDS011;10261;49.010;12.034;2022-08-21T01:58:20;9.68;;;7.68;;
20203;SDS011;10261;49.010;12.034;2022-08-21T01:59:23;9.93;;;8.18;;
20203;SDS011;10261;49.010;12.034;2022-08-21T02:00:27;10.77;;;8.73;;
20203;SDS011;10261;49.010;12.034;2022-08-21T02:01:31;9.05;;;8.15;;
20203;SDS011;10261;49.010;12.034;2022-08-21T02:02:33;6.78;;;6.18;;
20203;SDS011;10261;49.010;12.034;2022-08-21T02:03:36;14.07;;;10.40;;
20203;SDS011;10261;49.010;12.034;2022-08-21T02:04:38;10.88;;;7.65;;
20203;SDS011;10261;49.010;12.034;2022-08-21T02:05:41;16.10;;;8.20;;
20203;SDS011;10261;49.010;12.034;2022-08-21T02:06:43;11.05;;;7.57;;
20203;SDS011;10261;49.010;12.034;2022-08-21T02:07:47;18.88;;;8.85;;
20203;SDS011;10261;49.010;12.034;2022-08-21T02:08:52;14.75;;;7.97;;
20203;SDS011;10261;49.010;12.034;2022-08-21T02:09:55;14.15;;;8.18;;
20203;SDS011;10261;49.010;12.034;2022-08-21T02:10:58;13.15;;;7.50;;
20203;SDS011;10261;49.010;12.034;2022-08-21T02:12:01;8.25;;;7.35;;
20203;SDS011;10261;49.010;12.034;2022-08-21T02:13:04;14.25;;;9.13;;
20203;SDS011;10261;49.010;12.034;2022-08-21T02:14:14;10.68;;;8.70;;
20203;SDS011;10261;49.010;12.034;2022-08-21T02:15:32;12.48;;;7.05;;
20203;SDS011;10261;49.010;12.034;2022-08-21T02:16:35;10.60;;;7.40;;
20203;SDS011;10261;49.010;12.034;2022-08-21T02:17:38;8.32;;;7.53;;
20203;SDS011;10261;49.010;12.034;2022-08-21T02:18:43;8.50;;;7.50;;
20203;SDS011;10261;49.010;12.034;2022-08-21T02:19:46;13.13;;;7.15;;
20203;SDS011;10261;49.010;12.034;2022-08-21T02:20:48;13.65;;;7.75;;
20203;SDS011;10261;49.010;12.034;2022-08-21T02:21:57;8.98;;;7.18;;
20203;SDS011;10261;49.010;12.034;2022-08-21T02:22:59;11.25;;;7.50;;
20203;SDS011;10261;49.010;12.034;2022-08-21T02:24:04;13.55;;;8.43;;
20203;SDS011;10261;49.010;12.034;2022-08-21T02:25:07;12.25;;;7.38;;
20203;SDS011;10261;49.010;12.034;2022-08-21T02:26:10;9.38;;;7.25;;
20203;SDS011;10261;49.010;12.034;2022-08-21T02:27:12;8.52;;;7.13;;
20203;SDS011;10261;49.010;12.034;2022-08-21T02:28:20;7.68;;;6.43;;
20203;SDS011;10261;49.010;12.034;2022-08-21T02:29:22;11.80;;;7.53;;
20203;SDS011;10261;49.010;12.034;2022-08-21T02:30:27;12.35;;;5.85;;
20203;SDS011;10261;49.010;12.034;2022-08-21T02:31:31;7.03;;;5.88;;
20203;SDS011;10261;49.010;12.034;2022-08-21T02:32:34;8.25;;;6.30;;
20203;SDS011;10261;49.010;12.034;2022-08-21T02:33:36;6.80;;;6.10;;
20203;SDS011;10261;49.010;12.034;2022-08-21T02:34:40;6.90;;;6.20;;
20203;SDS011;10261;49.010;12.034;2022-08-21T02:35:42;8.18;;;6.55;;
20203;SDS011;10261;49.010;12.034;2022-08-21T02:36:46;7.10;;;6.32;;
20203;SDS011;10261;49.010;12.034;2022-08-21T02:38:02;7.45;;;5.90;;
20203;SDS011;10261;49.010;12.034;2022-08-21T02:39:08;5.78;;;5.28;;
20203;SDS011;10261;49.010;12.034;2022-08-21T02:40:10;7.05;;;6.10;;
20203;SDS011;10261;49.010;12.034;2022-08-21T02:41:16;7.13;;;6.43;;
20203;SDS011;10261;49.010;12.034;2022-08-21T02:42:21;6.35;;;5.75;;
20203;SDS011;10261;49.010;12.034;2022-08-21T02:43:24;6.15;;;5.65;;
20203;SDS011;10261;49.010;12.034;2022-08-21T02:44:29;6.28;;;5.32;;
20203;SDS011;10261;49.010;12.034;2022-08-21T02:45:35;6.03;;;5.50;;
20203;SDS011;10261;49.010;12.034;2022-08-21T02:46:39;6.45;;;5.85;;
20203;SDS011;10261;49.010;12.034;2022-08-21T02:47:46;5.70;;;5.18;;
20203;SDS011;10261;49.010;12.034;2022-08-21T02:48:50;7.10;;;5.05;;
20203;SDS011;10261;49.010;12.034;2022-08-21T02:49:52;7.35;;;6.15;;
20203;SDS011;10261;49.010;12.034;2022-08-21T02:50:56;6.93;;;6.32;;
20203;SDS011;10261;49.010;12.034;2022-08-21T02:51:59;5.68;;;5.18;;
20203;SDS011;10261;49.010;12.034;2022-08-21T02:53:03;5.75;;;5.25;;
20203;SDS011;10261;49.010;12.034;2022-08-21T02:54:05;6.32;;;5.72;;
20203;SDS011;10261;49.010;12.034;2022-08-21T02:55:10;5.53;;;5.03;;
20203;SDS011;10261;49.010;12.034;2022-08-21T02:56:12;6.32;;;5.72;;
20203;SDS011;10261;49.010;12.034;2022-08-21T02:57:17;5.95;;;4.93;;
20203;SDS011;10261;49.010;12.034;2022-08-21T02:58:20;10.23;;;5.95;;
20203;SDS011;10261;49.010;12.034;2022-08-21T02:59:25;9.30;;;5.95;;
20203;SDS011;10261;49.010;12.034;2022-08-21T03:00:28;5.97;;;5.30;;
20203;SDS011;10261;49.010;12.034;2022-08-21T03:01:32;6.32;;;5.18;;
20203;SDS011;10261;49.010;12.034;2022-08-21T03:02:35;6.25;;;4.55;;
20203;SDS011;10261;49.010;12.034;2022-08-21T03:03:38;5.65;;;5.05;;
20203;SDS011;10261;49.010;12.034;2022-08-21T03:04:43;6.53;;;5.28;;
20203;SDS011;10261;49.010;12.034;2022-08-21T03:05:47;5.90;;;5.40;;
20203;SDS011;10261;49.010;12.034;2022-08-21T03:06:51;5.97;;;5.43;;
20203;SDS011;10261;49.010;12.034;2022-08-21T03:07:53;6.45;;;5.82;;
20203;SDS011;10261;49.010;12.034;2022-08-21T03:08:57;6.70;;;6.00;;
20203;SDS011;10261;49.010;12.034;2022-08-21T03:10:00;5.95;;;5.35;;
20203;SDS011;10261;49.010;12.034;2022-08-21T03:11:04;6.32;;;5.75;;
20203;SDS011;10261;49.010;12.034;2022-08-21T03:12:08;9.30;;;6.40;;
20203;SDS011;10261;49.010;12.034;2022-08-21T03:13:11;6.82;;;5.70;;
20203;SDS011;10261;49.010;12.034;2022-08-21T03:14:13;6.30;;;5.70;;
20203;SDS011;10261;49.010;12.034;2022-08-21T03:15:17;6.53;;;5.78;;
20203;SDS011;10261;49.010;12.034;2022-08-21T03:16:20;7.10;;;5.53;;
20203;SDS011;10261;49.010;12.034;2022-08-21T03:17:23;6.93;;;5.60;;
20203;SDS011;10261;49.010;12.034;2022-08-21T03:18:30;6.45;;;5.85;;
20203;SDS011;10261;49.010;12.034;2022-08-21T03:19:33;6.13;;;4.72;;
20203;SDS011;10261;49.010;12.034;2022-08-21T03:20:35;6.15;;;5.55;;
20203;SDS011;10261;49.010;12.034;2022-08-21T03:21:39;6.00;;;5.50;;
20203;SDS011;10261;49.010;12.034;2022-08-21T03:22:41;7.10;;;5.60;;
20203;SDS011;10261;49.010;12.034;2022-08-21T03:23:56;7.80;;;7.00;;
20203;SDS011;10261;49.010;12.034;2022-08-21T03:24:59;11.10;;;5.90;;
20203;SDS011;10261;49.010;12.034;2022-08-21T03:26:06;11.45;;;6.20;;
20203;SDS011;10261;49.010;12.034;2022-08-21T03:27:09;7.80;;;6.53;;
20203;SDS011;10261;49.010;12.034;2022-08-21T03:28:15;7.10;;;5.65;;
20203;SDS011;10261;49.010;12.034;2022-08-21T03:29:19;9.05;;;5.18;;
20203;SDS011;10261;49.010;12.034;2022-08-21T03:30:22;6.55;;;5.90;;
20203;SDS011;10261;49.010;12.034;2022-08-21T03:31:25;6.85;;;6.15;;
20203;SDS011;10261;49.010;12.034;2022-08-21T03:32:30;6.18;;;5.57;;
20203;SDS011;10261;49.010;12.034;2022-08-21T03:33:32;6.60;;;5.97;;
20203;SDS011;10261;49.010;12.034;2022-08-21T03:34:35;10.50;;;5.97;;
20203;SDS011;10261;49.010;12.034;2022-08-21T03:35:38;7.65;;;6.63;;
20203;SDS011;10261;49.010;12.034;2022-08-21T03:36:41;5.88;;;4.90;;
20203;SDS011;10261;49.010;12.034;2022-08-21T03:37:45;6.18;;;5.57;;
20203;SDS011;10261;49.010;12.034;2022-08-21T03:38:48;6.07;;;5.50;;
20203;SDS011;10261;49.010;12.034;2022-08-21T03:39:51;6.00;;;5.38;;
20203;SDS011;10261;49.010;12.034;2022-08-21T03:40:54;5.97;;;5.47;;
20203;SDS011;10261;49.010;12.034;2022-08-21T03:41:57;7.85;;;5.40;;
20203;SDS011;10261;49.010;12.034;2022-08-21T03:43:01;8.40;;;5.50;;
20203;SDS011;10261;49.010;12.034;2022-08-21T03:44:04;5.95;;;5.20;;
20203;SDS011;10261;49.010;12.034;2022-08-21T03:45:06;6.88;;;6.15;;
20203;SDS011;10261;49.010;12.034;2022-08-21T03:46:11;6.30;;;5.70;;
20203;SDS011;10261;49.010;12.034;2022-08-21T03:47:13;6.40;;;5.80;;
20203;SDS011;10261;49.010;12.034;2022-08-21T03:48:16;6.88;;;5.90;;
20203;SDS011;10261;49.010;12.034;2022-08-21T03:49:18;9.18;;;5.97;;
20203;SDS011;10261;49.010;12.034;2022-08-21T03:50:21;6.35;;;5.85;;
20203;SDS011;10261;49.010;12.034;2022-08-21T03:51:24;6.43;;;5.50;;
20203;SDS011;10261;49.010;12.034;2022-08-21T03:52:27;6.25;;;5.40;;
20203;SDS011;10261;49.010;12.034;2022-08-21T03:53:29;6.50;;;5.90;;
20203;SDS011;10261;49.010;12.034;2022-08-21T03:54:32;5.95;;;5.03;;
20203;SDS011;10261;49.010;12.034;2022-08-21T03:55:35;6.30;;;5.47;;
20203;SDS011;10261;49.010;12.034;2022-08-21T03:56:40;5.72;;;5.22;;
20203;SDS011;10261;49.010;12.034;2022-08-21T03:57:42;6.30;;;5.70;;
20203;SDS011;10261;49.010;12.034;2022-08-21T03:58:46;6.13;;;5.38;;
20203;SDS011;10261;49.010;12.034;2022-08-21T03:59:48;6.20;;;5.38;;
20203;SDS011;10261;49.010;12.034;2022-08-21T04:00:52;5.82;;;5.22;;
20203;SDS011;10261;49.010;12.034;2022-08-21T04:01:57;7.10;;;5.20;;
20203;SDS011;10261;49.010;12.034;2022-08-21T04:03:02;6.28;;;5.68;;
20203;SDS011;10261;49.010;12.034;2022-08-21T04:04:04;7.32;;;4.80;;
20203;SDS011;10261;49.010;12.034;2022-08-21T04:05:07;6.18;;;5.65;;
20203;SDS011;10261;49.010;12.034;2022-08-21T04:06:09;5.55;;;5.05;;
20203;SDS011;10261;49.010;12.034;2022-08-21T04:07:12;6.30;;;5.20;;
20203;SDS011;10261;49.010;12.034;2022-08-21T04:08:15;4.65;;;4.25;;
20203;SDS011;10261;49.010;12.034;2022-08-21T04:09:19;5.57;;;5.00;;
20203;SDS011;10261;49.010;12.034;2022-08-21T04:10:22;5.68;;;5.13;;
20203;SDS011;10261;49.010;12.034;2022-08-21T04:11:26;5.88;;;5.30;;
20203;SDS011;10261;49.010;12.034;2022-08-21T04:12:29;5.78;;;5.25;;
20203;SDS011;10261;49.010;12.034;2022-08-21T04:13:33;4.75;;;4.35;;
20203;SDS011;10261;49.010;12.034;2022-08-21T04:14:44;7.05;;;6.32;;
20203;SDS011;10261;49.010;12.034;2022-08-21T04:15:46;9.45;;;5.10;;
20203;SDS011;10261;49.010;12.034;2022-08-21T04:16:50;7.32;;;5.60;;
20203;SDS011;10261;49.010;12.034;2022-08-21T04:17:52;6.35;;;5.45;;
20203;SDS011;10261;49.010;12.034;2022-08-21T04:18:55;6.00;;;5.40;;
20203;SDS011;10261;49.010;12.034;2022-08-21T04:19:58;9.52;;;5.45;;
20203;SDS011;10261;49.010;12.034;2022-08-21T04:21:01;7.10;;;6.30;;
20203;SDS011;10261;49.010;12.034;2022-08-21T04:22:05;6.65;;;6.05;;
20203;SDS011;10261;49.010;12.034;2022-08-21T04:23:08;5.28;;;4.75;;
20203;SDS011;10261;49.010;12.034;2022-08-21T04:24:10;6.70;;;5.60;;
20203;SDS011;10261;49.010;12.034;2022-08-21T04:25:14;9.20;;;6.03;;
20203;SDS011;10261;49.010;12.034;2022-08-21T04:26:16;5.80;;;5.20;;
20203;SDS011;10261;49.010;12.034;2022-08-21T04:27:19;5.20;;;4.80;;
20203;SDS011;10261;49.010;12.034;2022-08-21T04:28:23;5.75;;;5.10;;
20203;SDS011;10261;49.010;12.034;2022-08-21T04:29:31;5.40;;;4.90;;
20203;SDS011;10261;49.010;12.034;2022-08-21T04:30:40;7.80;;;5.28;;
20203;SDS011;10261;49.010;12.034;2022-08-21T04:31:43;5.22;;;4.78;;
20203;SDS011;10261;49.010;12.034;2022-08-21T04:32:46;5.53;;;5.03;;
20203;SDS011;10261;49.010;12.034;2022-08-21T04:33:51;8.90;;;5.43;;
20203;SDS011;10261;49.010;12.034;2022-08-21T04:34:57;6.28;;;5.43;;
20203;SDS011;10261;49.010;12.034;2022-08-21T04:36:01;6.00;;;5.30;;
20203;SDS011;10261;49.010;12.034;2022-08-21T04:37:04;5.80;;;5.30;;
20203;SDS011;10261;49.010;12.034;2022-08-21T04:38:06;5.10;;;4.70;;
20203;SDS011;10261;49.010;12.034;2022-08-21T04:39:09;4.80;;;4.20;;
20203;SDS011;10261;49.010;12.034;2022-08-21T04:40:12;4.88;;;4.25;;
20203;SDS011;10261;49.010;12.034;2022-08-21T04:41:17;4.63;;;3.95;;
20203;SDS011;10261;49.010;12.034;2022-08-21T04:42:28;4.40;;;4.03;;
20203;SDS011;10261;49.010;12.034;2022-08-21T04:43:33;5.25;;;4.80;;
20203;SDS011;10261;49.010;12.034;2022-08-21T04:44:35;4.30;;;3.90;;
20203;SDS011;10261;49.010;12.034;2022-08-21T04:45:39;4.15;;;3.85;;
20203;SDS011;10261;49.010;12.034;2022-08-21T04:46:42;4.05;;;3.75;;
20203;SDS011;10261;49.010;12.034;2022-08-21T04:47:45;5.05;;;4.55;;
20203;SDS011;10261;49.010;12.034;2022-08-21T04:48:53;4.55;;;4.15;;
20203;SDS011;10261;49.010;12.034;2022-08-21T04:49:57;4.13;;;3.83;;
20203;SDS011;10261;49.010;12.034;2022-08-21T04:51:00;3.75;;;3.45;;
20203;SDS011;10261;49.010;12.034;2022-08-21T04:52:07;4.40;;;4.03;;
20203;SDS011;10261;49.010;12.034;2022-08-21T04:53:10;4.63;;;4.22;;
20203;SDS011;10261;49.010;12.034;2022-08-21T04:54:16;4.70;;;4.20;;
20203;SDS011;10261;49.010;12.034;2022-08-21T04:55:21;4.82;;;4.43;;
20203;SDS011;10261;49.010;12.034;2022-08-21T04:56:29;4.45;;;4.05;;
20203;SDS011;10261;49.010;12.034;2022-08-21T04:57:36;5.30;;;4.80;;
20203;SDS011;10261;49.010;12.034;2022-08-21T04:58:50;5.78;;;4.03;;
20203;SDS011;10261;49.010;12.034;2022-08-21T04:59:54;4.72;;;4.28;;
20203;SDS011;10261;49.010;12.034;2022-08-21T05:00:57;4.07;;;3.78;;
20203;SDS011;10261;49.010;12.034;2022-08-21T05:02:01;4.22;;;3.83;;
20203;SDS011;10261;49.010;12.034;2022-08-21T05:03:07;4.00;;;3.58;;
20203;SDS011;10261;49.010;12.034;2022-08-21T05:04:11;4.93;;;4.45;;
20203;SDS011;10261;49.010;12.034;2022-08-21T05:05:17;4.47;;;4.07;;
20203;SDS011;10261;49.010;12.034;2022-08-21T05:06:19;3.70;;;3.40;;
20203;SDS011;10261;49.010;12.034;2022-08-21T05:07:23;4.32;;;3.97;;
20203;SDS011;10261;49.010;12.034;2022-08-21T05:08:43;6.50;;;4.78;;
20203;SDS011;10261;49.010;12.034;2022-08-21T05:09:49;5.85;;;5.25;;
20203;SDS011;10261;49.010;12.034;2022-08-21T05:10:52;4.85;;;4.40;;
20203;SDS011;10261;49.010;12.034;2022-08-21T05:12:00;5.40;;;5.00;;
20203;SDS011;10261;49.010;12.034;2022-08-21T05:13:05;4.57;;;4.18;;
20203;SDS011;10261;49.010;12.034;2022-08-21T05:14:10;6.47;;;4.68;;
20203;SDS011;10261;49.010;12.034;2022-08-21T05:15:13;5.43;;;4.93;;
20203;SDS011;10261;49.010;12.034;2022-08-21T05:16:18;5.72;;;4.70;;
20203;SDS011;10261;49.010;12.034;2022-08-21T05:17:38;6.10;;;5.60;;
20203;SDS011;10261;49.010;12.034;2022-08-21T05:18:41;7.65;;;5.22;;
20203;SDS011;10261;49.010;12.034;2022-08-21T05:19:44;5.43;;;4.93;;
20203;SDS011;10261;49.010;12.034;2022-08-21T05:20:47;5.40;;;4.90;;
20203;SDS011;10261;49.010;12.034;2022-08-21T05:21:49;6.03;;;4.80;;
20203;SDS011;10261;49.010;12.034;2022-08-21T05:22:52;5.45;;;4.93;;
20203;SDS011;10261;49.010;12.034;2022-08-21T05:23:54;6.10;;;5.60;;
20203;SDS011;10261;49.010;12.034;2022-08-21T05:24:57;7.00;;;6.00;;
20203;SDS011;10261;49.010;12.034;2022-08-21T05:25:59;6.30;;;5.70;;
20203;SDS011;10261;49.010;12.034;2022-08-21T05:27:02;6.40;;;5.32;;
20203;SDS011;10261;49.010;12.034;2022-08-21T05:28:05;6.00;;;5.35;;
20203;SDS011;10261;49.010;12.034;2022-08-21T05:29:08;8.18;;;6.03;;
20203;SDS011;10261;49.010;12.034;2022-08-21T05:30:14;6.72;;;6.10;;
20203;SDS011;10261;49.010;12.034;2022-08-21T05:31:17;6.20;;;5.60;;
20203;SDS011;10261;49.010;12.034;2022-08-21T05:32:20;5.63;;;5.10;;
20203;SDS011;10261;49.010;12.034;2022-08-21T05:33:23;6.28;;;5.70;;
20203;SDS011;10261;49.010;12.034;2022-08-21T05:34:25;6.60;;;5.93;;
20203;SDS011;10261;49.010;12.034;2022-08-21T05:35:28;9.60;;;7.13;;
20203;SDS011;10261;49.010;12.034;2022-08-21T05:36:30;6.63;;;5.18;;
20203;SDS011;10261;49.010;12.034;2022-08-21T05:37:34;6.95;;;5.82;;
20203;SDS011;10261;49.010;12.034;2022-08-21T05:38:36;8.15;;;6.28;;
20203;SDS011;10261;49.010;12.034;2022-08-21T05:39:39;6.43;;;5.82;;
20203;SDS011;10261;49.010;12.034;2022-08-21T05:41:01;9.35;;;7.18;;
20203;SDS011;10261;49.010;12.034;2022-08-21T05:42:04;7.60;;;6.22;;
20203;SDS011;10261;49.010;12.034;2022-08-21T05:43:07;6.50;;;5.80;;
20203;SDS011;10261;49.010;12.034;2022-08-21T05:44:10;6.90;;;6.30;;
20203;SDS011;10261;49.010;12.034;2022-08-21T05:45:12;5.82;;;5.28;;
20203;SDS011;10261;49.010;12.034;2022-08-21T05:46:37;6.18;;;5.57;;
20203;SDS011;10261;49.010;12.034;2022-08-21T05:47:39;6.75;;;6.00;;
20203;SDS011;10261;49.010;12.034;2022-08-21T05:48:42;6.47;;;5.88;;
20203;SDS011;10261;49.010;12.034;2022-08-21T05:49:44;6.10;;;5.50;;
20203;SDS011;10261;49.010;12.034;2022-08-21T05:50:48;6.85;;;6.25;;
20203;SDS011;10261;49.010;12.034;2022-08-21T05:51:51;9.35;;;6.30;;
20203;SDS011;10261;49.010;12.034;2022-08-21T05:52:54;6.22;;;5.40;;
20203;SDS011;10261;49.010;12.034;2022-08-21T05:54:07;5.97;;;5.47;;
20203;SDS011;10261;49.010;12.034;2022-08-21T05:55:10;6.15;;;5.55;;
20203;SDS011;10261;49.010;12.034;2022-08-21T05:56:12;5.68;;;5.18;;
20203;SDS011;10261;49.010;12.034;2022-08-21T05:57:16;7.03;;;6.32;;
20203;SDS011;10261;49.010;12.034;2022-08-21T05:58:19;6.90;;;6.20;;
20203;SDS011;10261;49.010;12.034;2022-08-21T05:59:23;5.45;;;4.95;;
20203;SDS011;10261;49.010;12.034;2022-08-21T06:00:28;7.43;;;6.50;;
20203;SDS011;10261;49.010;12.034;2022-08-21T06:01:30;7.00;;;6.13;;
20203;SDS011;10261;49.010;12.034;2022-08-21T06:02:33;6.85;;;5.35;;
20203;SDS011;10261;49.010;12.034;2022-08-21T06:03:37;6.90;;;5.57;;
20203;SDS011;10261;49.010;12.034;2022-08-21T06:04:41;6.20;;;5.55;;
20203;SDS011;10261;49.010;12.034;2022-08-21T06:05:43;7.45;;;5.95;;
20203;SDS011;10261;49.010;12.034;2022-08-21T06:06:47;7.20;;;6.55;;
20203;SDS011;10261;49.010;12.034;2022-08-21T06:07:50;5.85;;;5.35;;
20203;SDS011;10261;49.010;12.034;2022-08-21T06:08:52;6.63;;;5.95;;
20203;SDS011;10261;49.010;12.034;2022-08-21T06:09:55;6.13;;;5.53;;
20203;SDS011;10261;49.010;12.034;2022-08-21T06:10:58;7.13;;;6.43;;
20203;SDS011;10261;49.010;12.034;2022-08-21T06:12:03;6.57;;;5.97;;
20203;SDS011;10261;49.010;12.034;2022-08-21T06:13:05;5.97;;;5.47;;
20203;SDS011;10261;49.010;12.034;2022-08-21T06:14:09;6.68;;;6.05;;
20203;SDS011;10261;49.010;12.034;2022-08-21T06:15:12;7.05;;;6.35;;
20203;SDS011;10261;49.010;12.034;2022-08-21T06:16:16;6.13;;;5.53;;
20203;SDS011;10261;49.010;12.034;2022-08-21T06:17:19;6.55;;;5.95;;
20203;SDS011;10261;49.010;12.034;2022-08-21T06:18:21;5.72;;;5.32;;
20203;SDS011;10261;49.010;12.034;2022-08-21T06:19:24;6.57;;;5.97;;